EDDN 200020Z AUTO 17004KT CAVOK 16/15 Q1023 EDDN 192350Z AUTO 16003KT CAVOK 16/15 Q1023 EDDN 192320Z AUTO 16005KT CAVOK 16/15 Q1022 EDDN 192250Z AUTO 20005KT 160V240 9999 FEW006 17/16 Q1023 EDDN 192220Z AUTO 12008KT 090V150 CAVOK 16/16 Q1022 RESHRA EDDN 192150Z AUTO 11006KT 030V170 9999 SHRA FEW///TCU 16/15 Q1022 EDDN 192120Z AUTO 08013KT 7000 -RA FEW007 16/16 Q1022 RETSRA EDDN 192050Z AUTO 30006KT 8000 -RA FEW007 17/16 Q1024 RETSGR EDDN 192020Z AUTO 28009KT 220V330 9999 TSRA SCT///CB 17/16 Q1024 EDDN 191950Z AUTO 35015KT 9999 +TSGRRA FEW018 BKN///CB 17/15 Q1023 BECMG NSW EDDN 191920Z AUTO 33031G44KT 9999 TSRA FEW011 FEW///CB 21/13 Q1022 TEMPO 29020G40KT TSRAGR BKN030CB EDDN 191850Z AUTO VRB01KT CAVOK 25/15 Q1020 TEMPO 29020G35KT TSRA BKN030CB EDDN 191820Z AUTO 36003KT 340V040 9999 VCSH FEW///TCU 27/15 Q1019 NOSIG EDDN 191750Z AUTO 20004KT CAVOK 28/15 Q1019 NOSIG EDDN 191720Z AUTO 20004KT 170V230 CAVOK 29/14 Q1019 NOSIG EDDN 191650Z AUTO 19005KT 160V220 CAVOK 29/13 Q1019 EDDN 191620Z AUTO 26003KT 190V340 CAVOK 29/13 Q1019 NOSIG EDDN 191550Z AUTO 19007KT 160V230 9999 VCSH FEW///TCU 30/12 Q1019 NOSIG EDDN 191520Z AUTO 20006KT 140V260 CAVOK 30/12 Q1019 NOSIG EDDN 191450Z AUTO 22005KT 180V280 CAVOK 29/11 Q1019 NOSIG EDDN 191420Z AUTO 20005KT 150V240 CAVOK 29/12 Q1020 NOSIG EDDN 191350Z AUTO 25007KT 160V270 CAVOK 29/11 Q1020 NOSIG EDDN 191320Z AUTO 24004KT 160V320 CAVOK 29/11 Q1020 BECMG 27008KT EDDN 191250Z AUTO 20006KT 140V270 CAVOK 30/11 Q1021 BECMG 26008KT EDDN 191220Z AUTO VRB05KT CAVOK 29/11 Q1021 BECMG 25008KT EDDN 191150Z AUTO 17006KT 120V240 CAVOK 28/10 Q1021 BECMG 25008KT EDDN 191120Z AUTO VRB06KT CAVOK 28/10 Q1021 NOSIG EDDN 191050Z AUTO 14005KT 050V200 CAVOK 27/10 Q1021 NOSIG EDDN 191020Z AUTO 14007KT 080V200 CAVOK 26/09 Q1022 NOSIG EDDN 190950Z AUTO 14006KT 090V210 CAVOK 25/10 Q1022 NOSIG EDDN 190920Z AUTO 13009KT 090V180 CAVOK 24/10 Q1022 NOSIG EDDN 190850Z AUTO 13008KT 090V170 CAVOK 23/10 Q1022 NOSIG EDDN 190820Z AUTO 13007KT 100V160 CAVOK 22/09 Q1023 NOSIG EDDN 190750Z AUTO 14009KT CAVOK 21/09 Q1023 NOSIG EDDN 190720Z AUTO 12010KT 100V160 CAVOK 20/08 Q1023 NOSIG EDDN 190650Z AUTO 13008KT 100V160 CAVOK 19/07 Q1023 NOSIG EDDN 190620Z AUTO 14005KT 090V160 CAVOK 18/08 Q1023 NOSIG EDDN 190550Z AUTO 09005KT CAVOK 16/08 Q1023 NOSIG EDDN 190520Z AUTO 09003KT 060V130 CAVOK 15/08 Q1023 NOSIG EDDN 190450Z AUTO 10004KT CAVOK 13/08 Q1023 NOSIG EDDN 190420Z AUTO 09004KT CAVOK 12/07 Q1023 EDDN 190350Z AUTO 10003KT CAVOK 12/07 Q1023 EDDN 190320Z AUTO 09005KT CAVOK 13/07 Q1023 EDDN 190250Z AUTO 10006KT CAVOK 13/07 Q1023 EDDN 190220Z AUTO 10005KT CAVOK 14/07 Q1023 EDDN 190150Z AUTO 10003KT CAVOK 14/08 Q1023 EDDN 190120Z AUTO 11005KT CAVOK 14/08 Q1023 EDDN 190050Z AUTO 10006KT CAVOK 13/09 Q1023 EDDN 190020Z AUTO 10006KT CAVOK 15/09 Q1023 EDDN 182350Z AUTO 10006KT CAVOK 15/10 Q1023 EDDN 182320Z AUTO 10008KT CAVOK 14/10 Q1023 EDDN 182250Z AUTO 10008KT CAVOK 15/10 Q1023 EDDN 182220Z AUTO 09007KT CAVOK 16/10 Q1023 EDDN 182150Z AUTO 10009KT CAVOK 16/11 Q1023 EDDN 182120Z AUTO 09008KT CAVOK 17/11 Q1023 EDDN 182050Z AUTO 10007KT CAVOK 18/11 Q1023 EDDN 182020Z AUTO 10007KT CAVOK 19/11 Q1023 EDDN 181950Z AUTO 10007KT CAVOK 20/11 Q1023 NOSIG EDDN 181920Z AUTO 10007KT CAVOK 20/11 Q1023 NOSIG EDDN 181850Z AUTO 11006KT CAVOK 21/11 Q1023 NOSIG EDDN 181820Z AUTO 10007KT CAVOK 23/12 Q1023 NOSIG EDDN 181750Z AUTO 09005KT CAVOK 24/11 Q1023 NOSIG EDDN 181720Z AUTO 09009KT CAVOK 25/11 Q1023 NOSIG EDDN 181650Z AUTO 10006KT 060V140 CAVOK 25/11 Q1023 NOSIG EDDN 181620Z AUTO 11004KT 010V170 CAVOK 26/11 Q1023 NOSIG EDDN 181550Z AUTO 09006KT 350V160 CAVOK 26/12 Q1023 NOSIG EDDN 181520Z AUTO 11008KT 080V150 CAVOK 26/12 Q1023 NOSIG EDDN 181450Z AUTO 09009KT 050V120 CAVOK 26/12 Q1023 NOSIG EDDN 181420Z AUTO VRB05KT CAVOK 27/11 Q1023 NOSIG EDDN 181350Z AUTO 12006KT 090V170 CAVOK 26/11 Q1023 NOSIG EDDN 181320Z AUTO VRB04KT CAVOK 28/11 Q1023 NOSIG EDDN 181250Z AUTO VRB02KT CAVOK 27/11 Q1023 NOSIG

METAR Messwerte "NUERNBERG" EDDN

Zurück zur Übersicht

Ortsname
Ländercode / m ü. NN
Zeit Temperatur Taupunkt Rel.
Luftfeuchte
Luftdruck:
Altimeter
NN
Station
Wind in Beaufort
(Knoten)
Sichtweite
(Meter)
Wolken
(Meter über Grund)
Wettererscheinung
NUERNBERG
DE 312
Fr 20.05. 02:20161594 %1023
1023
986
S 2 (4)>= 10000Nicht signifikant 
NUERNBERG
DE 312
Fr 20.05. 01:50161594 %1023
1023
986
SSO 2 (3)>= 10000Nicht signifikant 
NUERNBERG
DE 312
Fr 20.05. 01:20161594 %1022
1022
985
SSO 2 (5)>= 10000Nicht signifikant 
NUERNBERG
DE 312
Fr 20.05. 00:50171694 %1023
1023
986
SSW 2 (5)
SSO - WSW
>= 10000Leicht bewölkt (180) 
NUERNBERG
DE 312
Fr 20.05. 00:201616100 %1022
1022
985
OSO 3 (8)
O - SSO
>= 10000Nicht signifikant 
NUERNBERG
DE 312
Do 19.05. 23:50161594 %1022
1022
985
OSO 2 (6)
NNO - S
>= 10000 Regen-Schauer
NUERNBERG
DE 312
Do 19.05. 23:201616100 %1022
1022
985
O 4 (13)7000Leicht bewölkt (210)Regen (schwach)
NUERNBERG
DE 312
Do 19.05. 22:50171694 %1024
1024
987
WNW 2 (6)8000Leicht bewölkt (210)Regen (schwach)
NUERNBERG
DE 312
Do 19.05. 22:20171694 %1024
1024
987
W 3 (9)
SW - NNW
>= 10000 Gewitter mit Regen
NUERNBERG
DE 312
Do 19.05. 21:50171588 %1023
1023
986
N 4 (15)>= 10000Leicht bewölkt (550)Gewitter mit Hagel/Regen (stark)
NUERNBERG
DE 312
Do 19.05. 21:20211360 %1022
1021
985
NNW 7 (31) - 9 (44)
Bald zeitweise:
WNW 5 (20) - 8 (40)
>= 10000Leicht bewölkt (340)Gewitter mit Regen
Bald zeitweise: Gewitter mit Regen/Hagel
NUERNBERG
DE 312
Do 19.05. 20:50251554 %1020
1019
983
Uml 1 (1)
Bald zeitweise:
WNW 5 (20) - 8 (35)
>= 10000Nicht signifikant Bald zeitweise: Gewitter mit Regen
NUERNBERG
DE 312
Do 19.05. 20:20271548 %1019
1018
982
N 2 (3)
NNW - NO
>= 10000  
NUERNBERG
DE 312
Do 19.05. 19:50281545 %1019
1017
982
SSW 2 (4)>= 10000Nicht signifikant 
NUERNBERG
DE 312
Do 19.05. 19:20291440 %1019
1017
982
SSW 2 (4)
S - SW
>= 10000Nicht signifikant 
NUERNBERG
DE 312
Do 19.05. 18:50291337 %1019
1017
982
S 2 (5)
SSO - SW
>= 10000Nicht signifikant 
NUERNBERG
DE 312
Do 19.05. 18:20291337 %1019
1017
982
W 2 (3)
S - NNW
>= 10000Nicht signifikant 
NUERNBERG
DE 312
Do 19.05. 17:50301233 %1019
1017
982
S 3 (7)
SSO - SW
>= 10000  
NUERNBERG
DE 312
Do 19.05. 17:20301233 %1019
1017
982
SSW 2 (6)
SO - W
>= 10000Nicht signifikant 
NUERNBERG
DE 312
Do 19.05. 16:50291133 %1019
1017
982
SW 2 (5)
S - W
>= 10000Nicht signifikant 
NUERNBERG
DE 312
Do 19.05. 16:20291235 %1020
1018
983
SSW 2 (5)
SSO - WSW
>= 10000Nicht signifikant 
NUERNBERG
DE 312
Do 19.05. 15:50291133 %1020
1018
983
WSW 3 (7)
SSO - W
>= 10000Nicht signifikant 
NUERNBERG
DE 312
Do 19.05. 15:20291133 %1020
1018
983
WSW 2 (4)
SSO - NW
Bald Übergang zu:
W 3 (8)
>= 10000Nicht signifikant 
NUERNBERG
DE 312
Do 19.05. 14:50301131 %1021
1019
984
SSW 2 (6)
SO - W
Bald Übergang zu:
W 3 (8)
>= 10000Nicht signifikant 
NUERNBERG
DE 312
Do 19.05. 14:20291133 %1021
1019
984
Uml 2 (5)
Bald Übergang zu:
WSW 3 (8)
>= 10000Nicht signifikant 
NUERNBERG
DE 312
Do 19.05. 13:50281032 %1021
1019
984
S 2 (6)
OSO - WSW
Bald Übergang zu:
WSW 3 (8)
>= 10000Nicht signifikant 
NUERNBERG
DE 312
Do 19.05. 13:20281032 %1021
1019
984
Uml 2 (6)>= 10000Nicht signifikant 
NUERNBERG
DE 312
Do 19.05. 12:50271034 %1021
1020
984
SO 2 (5)
NO - SSW
>= 10000Nicht signifikant 
NUERNBERG
DE 312
Do 19.05. 12:2026934 %1022
1021
985
SO 3 (7)
O - SSW
>= 10000Nicht signifikant 
NUERNBERG
DE 312
Do 19.05. 11:50251039 %1022
1021
985
SO 2 (6)
O - SSW
>= 10000Nicht signifikant 
NUERNBERG
DE 312
Do 19.05. 11:20241041 %1022
1021
985
SO 3 (9)
O - S
>= 10000Nicht signifikant 
NUERNBERG
DE 312
Do 19.05. 10:50231044 %1022
1021
985
SO 3 (8)
O - S
>= 10000Nicht signifikant 
NUERNBERG
DE 312
Do 19.05. 10:2022943 %1023
1022
986
SO 3 (7)
O - SSO
>= 10000Nicht signifikant 
NUERNBERG
DE 312
Do 19.05. 09:5021946 %1023
1022
986
SO 3 (9)>= 10000Nicht signifikant 
NUERNBERG
DE 312
Do 19.05. 09:2020846 %1023
1022
986
OSO 3 (10)
O - SSO
>= 10000Nicht signifikant 
NUERNBERG
DE 312
Do 19.05. 08:5019746 %1023
1023
986
SO 3 (8)
O - SSO
>= 10000Nicht signifikant 
NUERNBERG
DE 312
Do 19.05. 08:2018852 %1023
1023
986
SO 2 (5)
O - SSO
>= 10000Nicht signifikant 
NUERNBERG
DE 312
Do 19.05. 07:5016859 %1023
1023
986
O 2 (5)>= 10000Nicht signifikant 
NUERNBERG
DE 312
Do 19.05. 07:2015863 %1023
1023
986
O 2 (3)
ONO - SO
>= 10000Nicht signifikant 
NUERNBERG
DE 312
Do 19.05. 06:5013872 %1023
1023
986
O 2 (4)>= 10000Nicht signifikant 
NUERNBERG
DE 312
Do 19.05. 06:2012771 %1023
1023
986
O 2 (4)>= 10000Nicht signifikant 
NUERNBERG
DE 312
Do 19.05. 05:5012771 %1023
1023
986
O 2 (3)>= 10000Nicht signifikant 
NUERNBERG
DE 312
Do 19.05. 05:2013767 %1023
1023
986
O 2 (5)>= 10000Nicht signifikant 
NUERNBERG
DE 312
Do 19.05. 04:5013767 %1023
1023
986
O 2 (6)>= 10000Nicht signifikant 
NUERNBERG
DE 312
Do 19.05. 04:2014763 %1023
1023
986
O 2 (5)>= 10000Nicht signifikant 
NUERNBERG
DE 312
Do 19.05. 03:5014867 %1023
1023
986
O 2 (3)>= 10000Nicht signifikant 
NUERNBERG
DE 312
Do 19.05. 03:2014867 %1023
1023
986
OSO 2 (5)>= 10000Nicht signifikant 
NUERNBERG
DE 312
Do 19.05. 02:5013977 %1023
1023
986
O 2 (6)>= 10000Nicht signifikant 
NUERNBERG
DE 312
Do 19.05. 02:2015967 %1023
1023
986
O 2 (6)>= 10000Nicht signifikant 
NUERNBERG
DE 312
Do 19.05. 01:50151072 %1023
1023
986
O 2 (6)>= 10000Nicht signifikant 
NUERNBERG
DE 312
Do 19.05. 01:20141077 %1023
1023
986
O 3 (8)>= 10000Nicht signifikant 
NUERNBERG
DE 312
Do 19.05. 00:50151072 %1023
1023
986
O 3 (8)>= 10000Nicht signifikant 
NUERNBERG
DE 312
Do 19.05. 00:20161068 %1023
1023
986
O 3 (7)>= 10000Nicht signifikant 
NUERNBERG
DE 312
Mi 18.05. 23:50161172 %1023
1023
986
O 3 (9)>= 10000Nicht signifikant 
NUERNBERG
DE 312
Mi 18.05. 23:20171168 %1023
1023
986
O 3 (8)>= 10000Nicht signifikant 
NUERNBERG
DE 312
Mi 18.05. 22:50181164 %1023
1023
986
O 3 (7)>= 10000Nicht signifikant 
NUERNBERG
DE 312
Mi 18.05. 22:20191160 %1023
1023
986
O 3 (7)>= 10000Nicht signifikant 
NUERNBERG
DE 312
Mi 18.05. 21:50201156 %1023
1022
986
O 3 (7)>= 10000Nicht signifikant 
NUERNBERG
DE 312
Mi 18.05. 21:20201156 %1023
1022
986
O 3 (7)>= 10000Nicht signifikant 
NUERNBERG
DE 312
Mi 18.05. 20:50211153 %1023
1022
986
OSO 2 (6)>= 10000Nicht signifikant 
NUERNBERG
DE 312
Mi 18.05. 20:20231250 %1023
1022
986
O 3 (7)>= 10000Nicht signifikant 
NUERNBERG
DE 312
Mi 18.05. 19:50241144 %1023
1022
986
O 2 (5)>= 10000Nicht signifikant 
NUERNBERG
DE 312
Mi 18.05. 19:20251141 %1023
1022
986
O 3 (9)>= 10000Nicht signifikant 
NUERNBERG
DE 312
Mi 18.05. 18:50251141 %1023
1022
986
O 2 (6)
ONO - SO
>= 10000Nicht signifikant 
NUERNBERG
DE 312
Mi 18.05. 18:20261139 %1023
1022
986
OSO 2 (4)
N - S
>= 10000Nicht signifikant 
NUERNBERG
DE 312
Mi 18.05. 17:50261242 %1023
1022
986
O 2 (6)
N - SSO
>= 10000Nicht signifikant 
NUERNBERG
DE 312
Mi 18.05. 17:20261242 %1023
1022
986
OSO 3 (8)
O - SSO
>= 10000Nicht signifikant 
NUERNBERG
DE 312
Mi 18.05. 16:50261242 %1023
1022
986
O 3 (9)
NO - OSO
>= 10000Nicht signifikant 
NUERNBERG
DE 312
Mi 18.05. 16:20271137 %1023
1022
986
Uml 2 (5)>= 10000Nicht signifikant 
NUERNBERG
DE 312
Mi 18.05. 15:50261139 %1023
1022
986
OSO 2 (6)
O - S
>= 10000Nicht signifikant 
NUERNBERG
DE 312
Mi 18.05. 15:20281135 %1023
1021
986
Uml 2 (4)>= 10000Nicht signifikant 
NUERNBERG
DE 312
Mi 18.05. 14:50271137 %1023
1022
986
Uml 1 (2)>= 10000Nicht signifikant 

Altimeter: Einstellung am Altimeter (Höhenmesser), die Höhe 0 muss auf diesen Luftdruckwert zeigen, damit das Gerät die Stationshöhe richtig anzeigt.

NN: Luftdruck reduziert auf "Normal Null", auf Meereshöhe, dieser von der Temperatur abhängige Wert wird bisweilen unkorrekt einfach als "Luftdruck" bezeichnet. Eigentlich nur eine fiktive Größe, die es erlaubt, Stationen auf unterschiedlichen Höhen miteinander zu vergleichen.

Station: Realer Luftdruck an der Station.